Hlavní strana
METAR-TAF:

METAR-TAF

Letiště :

Forlì, Itálie

zeměpisná šířka: 44-12N, zeměpisná délka: 012-04E, výška: 27 m

Aktuální stav počasí

Zpráva byla vytvořena před 22 minutami, v 06:50 UTC
vítr z různých směrů 3 kt
Teplota 25°C
Vlhkost vzduchu 61%
Tlak 1015 hPa
Viditelnost 10 km a více
Žádná oblačnost pod 1500 m, nevyskytují se cumulonimby.

METAR: LIPK 190650Z VRB03KT CAVOK 25/17 Q1015

Čas: 09:12 (07:12 UTC)

Předpověď počasí

Zpráva byla vytvořena před 2 hodinami a 12 minutami, v 05:00 UTC
Předpověď platná od 19 v 06 UTC do 20 v 06 UTC
vítr z různých směrů 5 kt
Viditelnost 10 km a více
Žádná oblačnost pod 1500 m, nevyskytují se cumulonimby.
Změna
od 19 v 12 UTC do 19 v 14 UTC
Východoseverovýchodní vítr 10 kt
Změna
od 19 v 18 UTC do 19 v 20 UTC
vítr z různých směrů 5 kt

TAF: LIPK 190500Z 1906/2006 VRB05KT CAVOK BECMG 1912/1914 07010KT BECMG 1918/1920 VRB05KT

Stav a předpovědi počasí z více než 4 000 letišť (zprávy METAR a TAF).

Červené a žluté tečky na mapě představují dostupné meteorologické stanice.

Když kurzor umístíte na tečku, zobrazí se název stanice.

Pak kliknutím zobrazíte stav a předpověď počasí.

Chcete-li změnit mapu, kliknutím na zelené tlačítko se znaménkem +mapu přiblížíte, kliknutím na zelené tlačítko se znaménkem – mapu oddálíte a kliknutím na zelené šipky přejdete na sousední mapy.


METAR-TAF: